sensor_id;sensor_type;location;lat;lon;timestamp;P1;durP1;ratioP1;P2;durP2;ratioP2
1390;SDS011;690;51.454;7.194;2023-05-07T00:01:33;23.47;;;21.10;;
1390;SDS011;690;51.454;7.194;2023-05-07T00:04:00;23.90;;;19.47;;
1390;SDS011;690;51.454;7.194;2023-05-07T00:06:28;23.37;;;20.97;;
1390;SDS011;690;51.454;7.194;2023-05-07T00:08:58;23.47;;;19.57;;
1390;SDS011;690;51.454;7.194;2023-05-07T00:11:27;22.50;;;20.23;;
1390;SDS011;690;51.454;7.194;2023-05-07T00:13:54;25.27;;;21.20;;
1390;SDS011;690;51.454;7.194;2023-05-07T00:16:21;24.07;;;21.50;;
1390;SDS011;690;51.454;7.194;2023-05-07T00:18:50;24.40;;;21.80;;
1390;SDS011;690;51.454;7.194;2023-05-07T00:21:18;23.07;;;20.63;;
1390;SDS011;690;51.454;7.194;2023-05-07T00:23:46;24.70;;;22.20;;
1390;SDS011;690;51.454;7.194;2023-05-07T00:26:13;23.60;;;21.07;;
1390;SDS011;690;51.454;7.194;2023-05-07T00:28:41;28.00;;;23.90;;
1390;SDS011;690;51.454;7.194;2023-05-07T00:31:08;27.33;;;24.33;;
1390;SDS011;690;51.454;7.194;2023-05-07T00:33:35;27.67;;;24.83;;
1390;SDS011;690;51.454;7.194;2023-05-07T00:36:04;26.87;;;24.07;;
1390;SDS011;690;51.454;7.194;2023-05-07T00:38:35;28.67;;;25.43;;
1390;SDS011;690;51.454;7.194;2023-05-07T00:41:04;28.80;;;25.80;;
1390;SDS011;690;51.454;7.194;2023-05-07T00:43:33;29.63;;;26.47;;
1390;SDS011;690;51.454;7.194;2023-05-07T00:46:01;32.73;;;28.00;;
1390;SDS011;690;51.454;7.194;2023-05-07T00:48:28;30.33;;;27.07;;
1390;SDS011;690;51.454;7.194;2023-05-07T00:50:56;32.00;;;28.50;;
1390;SDS011;690;51.454;7.194;2023-05-07T00:53:25;32.50;;;29.20;;
1390;SDS011;690;51.454;7.194;2023-05-07T00:55:52;32.30;;;28.57;;
1390;SDS011;690;51.454;7.194;2023-05-07T00:58:19;31.40;;;27.53;;
1390;SDS011;690;51.454;7.194;2023-05-07T01:00:47;31.80;;;28.50;;
1390;SDS011;690;51.454;7.194;2023-05-07T01:03:18;32.30;;;28.83;;
1390;SDS011;690;51.454;7.194;2023-05-07T01:05:45;33.17;;;29.57;;
1390;SDS011;690;51.454;7.194;2023-05-07T01:08:14;37.60;;;29.90;;
1390;SDS011;690;51.454;7.194;2023-05-07T01:10:42;32.83;;;29.43;;
1390;SDS011;690;51.454;7.194;2023-05-07T01:13:10;37.80;;;30.10;;
1390;SDS011;690;51.454;7.194;2023-05-07T01:15:41;33.17;;;29.80;;
1390;SDS011;690;51.454;7.194;2023-05-07T01:18:11;34.40;;;30.10;;
1390;SDS011;690;51.454;7.194;2023-05-07T01:20:40;34.20;;;30.70;;
1390;SDS011;690;51.454;7.194;2023-05-07T01:23:11;33.80;;;30.00;;
1390;SDS011;690;51.454;7.194;2023-05-07T01:25:50;31.90;;;28.50;;
1390;SDS011;690;51.454;7.194;2023-05-07T01:28:19;34.10;;;30.40;;
1390;SDS011;690;51.454;7.194;2023-05-07T01:30:49;35.10;;;30.57;;
1390;SDS011;690;51.454;7.194;2023-05-07T01:33:19;32.67;;;29.30;;
1390;SDS011;690;51.454;7.194;2023-05-07T01:35:48;32.50;;;29.10;;
1390;SDS011;690;51.454;7.194;2023-05-07T01:38:18;31.20;;;27.90;;
1390;SDS011;690;51.454;7.194;2023-05-07T01:40:48;32.33;;;28.97;;
1390;SDS011;690;51.454;7.194;2023-05-07T01:43:16;31.83;;;28.50;;
1390;SDS011;690;51.454;7.194;2023-05-07T01:45:43;31.63;;;28.07;;
1390;SDS011;690;51.454;7.194;2023-05-07T01:48:11;30.90;;;27.60;;
1390;SDS011;690;51.454;7.194;2023-05-07T01:50:40;31.90;;;28.53;;
1390;SDS011;690;51.454;7.194;2023-05-07T01:53:08;29.93;;;26.87;;
1390;SDS011;690;51.454;7.194;2023-05-07T01:55:37;33.77;;;27.73;;
1390;SDS011;690;51.454;7.194;2023-05-07T01:58:05;30.33;;;27.17;;
1390;SDS011;690;51.454;7.194;2023-05-07T02:00:32;30.57;;;27.37;;
1390;SDS011;690;51.454;7.194;2023-05-07T02:02:59;29.80;;;26.60;;
1390;SDS011;690;51.454;7.194;2023-05-07T02:05:28;28.97;;;25.97;;
1390;SDS011;690;51.454;7.194;2023-05-07T02:07:55;30.60;;;27.43;;
1390;SDS011;690;51.454;7.194;2023-05-07T02:10:22;29.83;;;26.50;;
1390;SDS011;690;51.454;7.194;2023-05-07T02:12:50;29.53;;;26.43;;
1390;SDS011;690;51.454;7.194;2023-05-07T02:15:27;28.83;;;25.97;;
1390;SDS011;690;51.454;7.194;2023-05-07T02:18:06;31.50;;;28.10;;
1390;SDS011;690;51.454;7.194;2023-05-07T02:20:34;32.00;;;28.50;;
1390;SDS011;690;51.454;7.194;2023-05-07T02:23:01;32.60;;;28.10;;
1390;SDS011;690;51.454;7.194;2023-05-07T02:25:28;32.03;;;28.60;;
1390;SDS011;690;51.454;7.194;2023-05-07T02:27:56;30.37;;;27.17;;
1390;SDS011;690;51.454;7.194;2023-05-07T02:30:26;30.93;;;27.20;;
1390;SDS011;690;51.454;7.194;2023-05-07T02:32:53;33.20;;;29.67;;
1390;SDS011;690;51.454;7.194;2023-05-07T02:35:20;33.40;;;29.87;;
1390;SDS011;690;51.454;7.194;2023-05-07T02:37:46;33.63;;;30.03;;
1390;SDS011;690;51.454;7.194;2023-05-07T02:40:16;33.83;;;30.03;;
1390;SDS011;690;51.454;7.194;2023-05-07T02:42:43;32.60;;;29.40;;
1390;SDS011;690;51.454;7.194;2023-05-07T02:45:11;36.53;;;31.77;;
1390;SDS011;690;51.454;7.194;2023-05-07T02:47:39;38.80;;;32.10;;
1390;SDS011;690;51.454;7.194;2023-05-07T02:50:06;39.17;;;33.00;;
1390;SDS011;690;51.454;7.194;2023-05-07T02:52:33;39.83;;;33.83;;
1390;SDS011;690;51.454;7.194;2023-05-07T02:55:02;41.40;;;33.30;;
1390;SDS011;690;51.454;7.194;2023-05-07T02:57:29;39.57;;;34.40;;
1390;SDS011;690;51.454;7.194;2023-05-07T02:59:57;45.77;;;34.93;;
1390;SDS011;690;51.454;7.194;2023-05-07T03:02:25;42.27;;;34.93;;
1390;SDS011;690;51.454;7.194;2023-05-07T03:04:52;42.53;;;33.67;;
1390;SDS011;690;51.454;7.194;2023-05-07T03:07:19;44.00;;;35.00;;
1390;SDS011;690;51.454;7.194;2023-05-07T03:09:46;42.20;;;34.80;;
1390;SDS011;690;51.454;7.194;2023-05-07T03:12:13;40.53;;;33.43;;
1390;SDS011;690;51.454;7.194;2023-05-07T03:14:42;40.93;;;31.70;;
1390;SDS011;690;51.454;7.194;2023-05-07T03:17:09;43.23;;;33.20;;
1390;SDS011;690;51.454;7.194;2023-05-07T03:19:40;42.67;;;33.43;;
1390;SDS011;690;51.454;7.194;2023-05-07T03:22:06;40.93;;;32.97;;
1390;SDS011;690;51.454;7.194;2023-05-07T03:24:35;47.13;;;34.67;;
1390;SDS011;690;51.454;7.194;2023-05-07T03:27:06;41.10;;;31.50;;
1390;SDS011;690;51.454;7.194;2023-05-07T03:29:33;44.97;;;34.90;;
1390;SDS011;690;51.454;7.194;2023-05-07T03:32:00;44.10;;;34.67;;
1390;SDS011;690;51.454;7.194;2023-05-07T03:34:27;41.97;;;33.23;;
1390;SDS011;690;51.454;7.194;2023-05-07T03:36:55;46.20;;;35.77;;
1390;SDS011;690;51.454;7.194;2023-05-07T03:39:21;46.90;;;34.60;;
1390;SDS011;690;51.454;7.194;2023-05-07T03:41:48;47.60;;;34.93;;
1390;SDS011;690;51.454;7.194;2023-05-07T03:44:16;42.43;;;33.50;;
1390;SDS011;690;51.454;7.194;2023-05-07T03:46:43;45.90;;;34.57;;
1390;SDS011;690;51.454;7.194;2023-05-07T03:49:10;44.03;;;34.63;;
1390;SDS011;690;51.454;7.194;2023-05-07T03:51:37;42.20;;;32.80;;
1390;SDS011;690;51.454;7.194;2023-05-07T03:54:05;43.07;;;33.47;;
1390;SDS011;690;51.454;7.194;2023-05-07T03:56:34;43.00;;;31.43;;
1390;SDS011;690;51.454;7.194;2023-05-07T03:59:00;38.23;;;30.20;;
1390;SDS011;690;51.454;7.194;2023-05-07T04:01:27;40.23;;;31.93;;
1390;SDS011;690;51.454;7.194;2023-05-07T04:03:56;42.43;;;33.00;;
1390;SDS011;690;51.454;7.194;2023-05-07T04:06:22;38.97;;;31.00;;
1390;SDS011;690;51.454;7.194;2023-05-07T04:08:52;40.57;;;32.23;;
1390;SDS011;690;51.454;7.194;2023-05-07T04:11:24;40.03;;;29.90;;
1390;SDS011;690;51.454;7.194;2023-05-07T04:13:53;39.50;;;31.50;;
1390;SDS011;690;51.454;7.194;2023-05-07T04:16:20;43.20;;;31.93;;
1390;SDS011;690;51.454;7.194;2023-05-07T04:18:49;36.53;;;30.60;;
1390;SDS011;690;51.454;7.194;2023-05-07T04:21:16;38.20;;;30.93;;
1390;SDS011;690;51.454;7.194;2023-05-07T04:23:44;35.90;;;29.60;;
1390;SDS011;690;51.454;7.194;2023-05-07T04:26:11;35.53;;;28.00;;
1390;SDS011;690;51.454;7.194;2023-05-07T04:28:40;34.73;;;30.10;;
1390;SDS011;690;51.454;7.194;2023-05-07T04:31:11;28.73;;;25.63;;
1390;SDS011;690;51.454;7.194;2023-05-07T04:33:38;33.57;;;27.40;;
1390;SDS011;690;51.454;7.194;2023-05-07T04:36:05;32.53;;;27.33;;
1390;SDS011;690;51.454;7.194;2023-05-07T04:38:33;30.83;;;25.53;;
1390;SDS011;690;51.454;7.194;2023-05-07T04:41:02;29.63;;;26.17;;
1390;SDS011;690;51.454;7.194;2023-05-07T04:43:34;29.93;;;26.60;;
1390;SDS011;690;51.454;7.194;2023-05-07T04:46:03;28.53;;;24.57;;
1390;SDS011;690;51.454;7.194;2023-05-07T04:48:30;26.00;;;22.43;;
1390;SDS011;690;51.454;7.194;2023-05-07T04:50:56;27.10;;;24.33;;
1390;SDS011;690;51.454;7.194;2023-05-07T04:53:26;24.47;;;21.80;;
1390;SDS011;690;51.454;7.194;2023-05-07T04:55:55;25.83;;;21.07;;
1390;SDS011;690;51.454;7.194;2023-05-07T04:58:22;20.10;;;18.07;;
1390;SDS011;690;51.454;7.194;2023-05-07T05:00:49;21.70;;;19.57;;
1390;SDS011;690;51.454;7.194;2023-05-07T05:03:19;20.13;;;18.10;;
1390;SDS011;690;51.454;7.194;2023-05-07T05:05:46;18.57;;;16.77;;
1390;SDS011;690;51.454;7.194;2023-05-07T05:08:14;20.27;;;16.80;;
1390;SDS011;690;51.454;7.194;2023-05-07T05:10:43;16.97;;;15.27;;
1390;SDS011;690;51.454;7.194;2023-05-07T05:13:10;16.97;;;15.27;;
1390;SDS011;690;51.454;7.194;2023-05-07T05:15:38;15.27;;;13.83;;
1390;SDS011;690;51.454;7.194;2023-05-07T05:18:05;15.53;;;14.03;;
1390;SDS011;690;51.454;7.194;2023-05-07T05:20:33;14.77;;;13.43;;
1390;SDS011;690;51.454;7.194;2023-05-07T05:23:01;16.67;;;14.07;;
1390;SDS011;690;51.454;7.194;2023-05-07T05:25:28;15.13;;;13.70;;
1390;SDS011;690;51.454;7.194;2023-05-07T05:27:56;13.87;;;12.57;;
1390;SDS011;690;51.454;7.194;2023-05-07T05:30:23;14.63;;;13.13;;
1390;SDS011;690;51.454;7.194;2023-05-07T05:32:53;14.73;;;13.43;;
1390;SDS011;690;51.454;7.194;2023-05-07T05:35:20;16.30;;;14.70;;
1390;SDS011;690;51.454;7.194;2023-05-07T05:37:48;16.30;;;14.83;;
1390;SDS011;690;51.454;7.194;2023-05-07T05:40:15;15.23;;;13.77;;
1390;SDS011;690;51.454;7.194;2023-05-07T05:42:42;15.03;;;13.47;;
1390;SDS011;690;51.454;7.194;2023-05-07T05:45:09;15.03;;;13.63;;
1390;SDS011;690;51.454;7.194;2023-05-07T05:47:36;14.43;;;12.90;;
1390;SDS011;690;51.454;7.194;2023-05-07T05:50:09;13.50;;;12.20;;
1390;SDS011;690;51.454;7.194;2023-05-07T05:52:35;13.30;;;12.10;;
1390;SDS011;690;51.454;7.194;2023-05-07T05:55:04;13.07;;;11.87;;
1390;SDS011;690;51.454;7.194;2023-05-07T05:57:32;13.17;;;11.93;;
1390;SDS011;690;51.454;7.194;2023-05-07T06:00:00;12.77;;;11.57;;
1390;SDS011;690;51.454;7.194;2023-05-07T06:02:29;13.13;;;11.83;;
1390;SDS011;690;51.454;7.194;2023-05-07T06:04:56;13.20;;;11.17;;
1390;SDS011;690;51.454;7.194;2023-05-07T06:07:23;10.80;;;9.80;;
1390;SDS011;690;51.454;7.194;2023-05-07T06:09:50;10.20;;;9.13;;
1390;SDS011;690;51.454;7.194;2023-05-07T06:12:18;10.47;;;9.40;;
1390;SDS011;690;51.454;7.194;2023-05-07T06:14:46;11.57;;;8.60;;
1390;SDS011;690;51.454;7.194;2023-05-07T06:17:13;10.40;;;8.70;;
1390;SDS011;690;51.454;7.194;2023-05-07T06:19:39;8.73;;;7.93;;
1390;SDS011;690;51.454;7.194;2023-05-07T06:22:06;8.83;;;8.10;;
1390;SDS011;690;51.454;7.194;2023-05-07T06:24:34;8.30;;;7.60;;
1390;SDS011;690;51.454;7.194;2023-05-07T06:27:01;8.03;;;6.67;;
1390;SDS011;690;51.454;7.194;2023-05-07T06:29:30;8.70;;;7.33;;
1390;SDS011;690;51.454;7.194;2023-05-07T06:32:05;7.47;;;6.80;;
1390;SDS011;690;51.454;7.194;2023-05-07T06:34:33;10.50;;;6.70;;
1390;SDS011;690;51.454;7.194;2023-05-07T06:36:59;7.67;;;6.20;;
1390;SDS011;690;51.454;7.194;2023-05-07T06:39:26;7.80;;;7.10;;
1390;SDS011;690;51.454;7.194;2023-05-07T06:41:53;6.70;;;6.07;;
1390;SDS011;690;51.454;7.194;2023-05-07T06:44:20;6.70;;;6.00;;
1390;SDS011;690;51.454;7.194;2023-05-07T06:46:48;6.30;;;5.80;;
1390;SDS011;690;51.454;7.194;2023-05-07T06:49:16;9.50;;;6.13;;
1390;SDS011;690;51.454;7.194;2023-05-07T06:51:43;6.47;;;5.87;;
1390;SDS011;690;51.454;7.194;2023-05-07T06:54:09;6.70;;;5.33;;
1390;SDS011;690;51.454;7.194;2023-05-07T06:56:37;10.93;;;5.83;;
1390;SDS011;690;51.454;7.194;2023-05-07T06:59:04;7.20;;;5.63;;
1390;SDS011;690;51.454;7.194;2023-05-07T07:01:32;6.57;;;5.97;;
1390;SDS011;690;51.454;7.194;2023-05-07T07:04:01;7.43;;;6.10;;
1390;SDS011;690;51.454;7.194;2023-05-07T07:06:28;5.30;;;4.90;;
1390;SDS011;690;51.454;7.194;2023-05-07T07:08:56;6.43;;;5.80;;
1390;SDS011;690;51.454;7.194;2023-05-07T07:11:24;9.80;;;5.67;;
1390;SDS011;690;51.454;7.194;2023-05-07T07:13:50;5.53;;;5.03;;
1390;SDS011;690;51.454;7.194;2023-05-07T07:16:19;8.40;;;6.60;;
1390;SDS011;690;51.454;7.194;2023-05-07T07:18:46;8.13;;;7.00;;
1390;SDS011;690;51.454;7.194;2023-05-07T07:21:14;7.93;;;7.13;;
1390;SDS011;690;51.454;7.194;2023-05-07T07:23:42;6.50;;;5.90;;
1390;SDS011;690;51.454;7.194;2023-05-07T07:26:09;7.33;;;6.57;;
1390;SDS011;690;51.454;7.194;2023-05-07T07:28:41;6.67;;;5.97;;
1390;SDS011;690;51.454;7.194;2023-05-07T07:31:09;6.43;;;5.83;;
1390;SDS011;690;51.454;7.194;2023-05-07T07:33:36;6.67;;;6.00;;
1390;SDS011;690;51.454;7.194;2023-05-07T07:36:04;6.60;;;6.00;;
1390;SDS011;690;51.454;7.194;2023-05-07T07:38:33;7.70;;;6.23;;
1390;SDS011;690;51.454;7.194;2023-05-07T07:41:00;7.10;;;6.43;;
1390;SDS011;690;51.454;7.194;2023-05-07T07:43:27;7.63;;;6.47;;
1390;SDS011;690;51.454;7.194;2023-05-07T07:45:54;8.30;;;6.87;;
1390;SDS011;690;51.454;7.194;2023-05-07T07:48:21;9.40;;;6.00;;
1390;SDS011;690;51.454;7.194;2023-05-07T07:50:48;6.80;;;6.20;;
1390;SDS011;690;51.454;7.194;2023-05-07T07:53:16;8.30;;;7.43;;
1390;SDS011;690;51.454;7.194;2023-05-07T07:55:44;7.57;;;6.70;;
1390;SDS011;690;51.454;7.194;2023-05-07T07:58:11;7.53;;;6.77;;
1390;SDS011;690;51.454;7.194;2023-05-07T08:00:38;7.87;;;7.17;;
1390;SDS011;690;51.454;7.194;2023-05-07T08:03:08;9.93;;;7.10;;
1390;SDS011;690;51.454;7.194;2023-05-07T08:05:35;8.70;;;7.77;;
1390;SDS011;690;51.454;7.194;2023-05-07T08:08:04;8.10;;;7.33;;
1390;SDS011;690;51.454;7.194;2023-05-07T08:10:31;9.67;;;7.70;;
1390;SDS011;690;51.454;7.194;2023-05-07T08:13:01;8.17;;;7.37;;
1390;SDS011;690;51.454;7.194;2023-05-07T08:15:28;7.97;;;7.27;;
1390;SDS011;690;51.454;7.194;2023-05-07T08:17:56;11.43;;;9.20;;
1390;SDS011;690;51.454;7.194;2023-05-07T08:20:23;10.30;;;7.77;;
1390;SDS011;690;51.454;7.194;2023-05-07T08:22:51;9.70;;;8.80;;
1390;SDS011;690;51.454;7.194;2023-05-07T08:25:17;12.37;;;9.57;;
1390;SDS011;690;51.454;7.194;2023-05-07T08:27:44;9.73;;;8.83;;
1390;SDS011;690;51.454;7.194;2023-05-07T08:30:13;11.50;;;9.30;;
1390;SDS011;690;51.454;7.194;2023-05-07T08:32:41;11.53;;;8.80;;
1390;SDS011;690;51.454;7.194;2023-05-07T08:35:08;9.13;;;8.23;;
1390;SDS011;690;51.454;7.194;2023-05-07T08:37:35;11.30;;;8.27;;
1390;SDS011;690;51.454;7.194;2023-05-07T08:40:02;9.03;;;8.23;;
1390;SDS011;690;51.454;7.194;2023-05-07T08:42:31;9.50;;;7.80;;
1390;SDS011;690;51.454;7.194;2023-05-07T08:45:01;9.67;;;8.87;;
1390;SDS011;690;51.454;7.194;2023-05-07T08:47:34;10.90;;;9.67;;
1390;SDS011;690;51.454;7.194;2023-05-07T08:50:06;10.53;;;9.53;;
1390;SDS011;690;51.454;7.194;2023-05-07T08:52:34;11.67;;;10.50;;
1390;SDS011;690;51.454;7.194;2023-05-07T08:55:02;9.90;;;8.90;;
1390;SDS011;690;51.454;7.194;2023-05-07T08:57:29;12.57;;;9.73;;
1390;SDS011;690;51.454;7.194;2023-05-07T08:59:56;9.97;;;8.97;;
1390;SDS011;690;51.454;7.194;2023-05-07T09:02:23;10.67;;;9.77;;
1390;SDS011;690;51.454;7.194;2023-05-07T09:04:52;14.00;;;10.40;;
1390;SDS011;690;51.454;7.194;2023-05-07T09:07:19;11.07;;;10.03;;
1390;SDS011;690;51.454;7.194;2023-05-07T09:09:46;12.20;;;10.97;;
1390;SDS011;690;51.454;7.194;2023-05-07T09:12:17;10.83;;;9.83;;
1390;SDS011;690;51.454;7.194;2023-05-07T09:14:44;12.50;;;11.30;;
1390;SDS011;690;51.454;7.194;2023-05-07T09:17:12;12.27;;;11.03;;
1390;SDS011;690;51.454;7.194;2023-05-07T09:19:39;13.20;;;11.77;;
1390;SDS011;690;51.454;7.194;2023-05-07T09:22:07;18.40;;;12.33;;
1390;SDS011;690;51.454;7.194;2023-05-07T09:24:34;13.40;;;12.10;;
1390;SDS011;690;51.454;7.194;2023-05-07T09:27:03;13.90;;;12.50;;
1390;SDS011;690;51.454;7.194;2023-05-07T09:29:30;14.73;;;13.10;;
1390;SDS011;690;51.454;7.194;2023-05-07T09:32:00;13.40;;;12.30;;
1390;SDS011;690;51.454;7.194;2023-05-07T09:34:28;13.40;;;12.03;;
1390;SDS011;690;51.454;7.194;2023-05-07T09:36:55;13.57;;;12.30;;
1390;SDS011;690;51.454;7.194;2023-05-07T09:39:24;13.17;;;12.07;;
1390;SDS011;690;51.454;7.194;2023-05-07T09:41:52;14.30;;;12.97;;
1390;SDS011;690;51.454;7.194;2023-05-07T09:44:20;13.50;;;12.20;;
1390;SDS011;690;51.454;7.194;2023-05-07T09:46:47;13.37;;;12.17;;
1390;SDS011;690;51.454;7.194;2023-05-07T09:49:21;11.80;;;10.60;;
1390;SDS011;690;51.454;7.194;2023-05-07T09:51:50;14.17;;;12.67;;
1390;SDS011;690;51.454;7.194;2023-05-07T09:54:18;12.73;;;11.53;;
1390;SDS011;690;51.454;7.194;2023-05-07T09:56:46;11.00;;;10.00;;
1390;SDS011;690;51.454;7.194;2023-05-07T09:59:15;11.57;;;10.47;;
1390;SDS011;690;51.454;7.194;2023-05-07T10:01:43;11.03;;;9.93;;
1390;SDS011;690;51.454;7.194;2023-05-07T10:04:10;11.17;;;9.67;;
1390;SDS011;690;51.454;7.194;2023-05-07T10:06:38;10.30;;;9.30;;
1390;SDS011;690;51.454;7.194;2023-05-07T10:09:07;12.53;;;11.33;;
1390;SDS011;690;51.454;7.194;2023-05-07T10:11:38;11.60;;;10.40;;
1390;SDS011;690;51.454;7.194;2023-05-07T10:14:07;9.27;;;8.37;;
1390;SDS011;690;51.454;7.194;2023-05-07T10:16:34;11.90;;;9.50;;
1390;SDS011;690;51.454;7.194;2023-05-07T10:19:02;8.47;;;7.67;;
1390;SDS011;690;51.454;7.194;2023-05-07T10:21:30;10.10;;;8.20;;
1390;SDS011;690;51.454;7.194;2023-05-07T10:24:03;11.60;;;8.33;;
1390;SDS011;690;51.454;7.194;2023-05-07T10:26:33;9.97;;;9.10;;
1390;SDS011;690;51.454;7.194;2023-05-07T10:29:03;8.70;;;7.90;;
1390;SDS011;690;51.454;7.194;2023-05-07T10:31:42;7.83;;;7.03;;
1390;SDS011;690;51.454;7.194;2023-05-07T10:34:18;7.70;;;7.00;;
1390;SDS011;690;51.454;7.194;2023-05-07T10:36:49;7.70;;;7.00;;
1390;SDS011;690;51.454;7.194;2023-05-07T10:39:17;5.90;;;5.20;;
1390;SDS011;690;51.454;7.194;2023-05-07T10:41:45;6.03;;;5.43;;
1390;SDS011;690;51.454;7.194;2023-05-07T10:44:13;11.33;;;5.53;;
1390;SDS011;690;51.454;7.194;2023-05-07T10:47:04;6.87;;;5.67;;
1390;SDS011;690;51.454;7.194;2023-05-07T10:49:35;7.80;;;5.40;;
1390;SDS011;690;51.454;7.194;2023-05-07T10:52:12;6.10;;;5.60;;
1390;SDS011;690;51.454;7.194;2023-05-07T10:54:42;6.80;;;6.10;;
1390;SDS011;690;51.454;7.194;2023-05-07T11:00:01;8.43;;;5.87;;
1390;SDS011;690;51.454;7.194;2023-05-07T11:05:33;6.17;;;5.57;;
1390;SDS011;690;51.454;7.194;2023-05-07T11:08:01;7.70;;;7.00;;
1390;SDS011;690;51.454;7.194;2023-05-07T11:10:47;10.70;;;7.03;;
1390;SDS011;690;51.454;7.194;2023-05-07T11:13:15;8.90;;;8.00;;
1390;SDS011;690;51.454;7.194;2023-05-07T11:15:43;8.20;;;7.50;;
1390;SDS011;690;51.454;7.194;2023-05-07T11:18:13;8.50;;;7.07;;
1390;SDS011;690;51.454;7.194;2023-05-07T11:20:44;6.60;;;6.00;;
1390;SDS011;690;51.454;7.194;2023-05-07T11:26:12;5.20;;;4.70;;
1390;SDS011;690;51.454;7.194;2023-05-07T11:28:50;5.90;;;5.30;;
1390;SDS011;690;51.454;7.194;2023-05-07T11:31:20;5.57;;;5.07;;
1390;SDS011;690;51.454;7.194;2023-05-07T11:33:51;7.57;;;6.53;;
1390;SDS011;690;51.454;7.194;2023-05-07T11:36:18;8.90;;;6.17;;
1390;SDS011;690;51.454;7.194;2023-05-07T11:38:46;7.67;;;6.97;;
1390;SDS011;690;51.454;7.194;2023-05-07T11:41:13;7.63;;;6.93;;
1390;SDS011;690;51.454;7.194;2023-05-07T11:43:55;8.70;;;7.40;;
1390;SDS011;690;51.454;7.194;2023-05-07T11:46:23;7.50;;;6.80;;
1390;SDS011;690;51.454;7.194;2023-05-07T11:48:51;10.77;;;9.77;;
1390;SDS011;690;51.454;7.194;2023-05-07T11:51:19;10.57;;;9.67;;
1390;SDS011;690;51.454;7.194;2023-05-07T11:53:46;14.07;;;10.50;;
1390;SDS011;690;51.454;7.194;2023-05-07T11:56:14;10.97;;;9.97;;
1390;SDS011;690;51.454;7.194;2023-05-07T11:58:43;12.43;;;11.13;;
1390;SDS011;690;51.454;7.194;2023-05-07T12:01:11;9.43;;;8.53;;
1390;SDS011;690;51.454;7.194;2023-05-07T12:03:44;9.40;;;8.30;;
1390;SDS011;690;51.454;7.194;2023-05-07T12:06:14;10.17;;;8.33;;
1390;SDS011;690;51.454;7.194;2023-05-07T12:08:43;8.43;;;7.60;;
1390;SDS011;690;51.454;7.194;2023-05-07T12:11:21;8.33;;;7.53;;
1390;SDS011;690;51.454;7.194;2023-05-07T12:13:49;7.30;;;6.60;;
1390;SDS011;690;51.454;7.194;2023-05-07T12:16:17;9.33;;;7.33;;
1390;SDS011;690;51.454;7.194;2023-05-07T12:18:45;9.30;;;8.40;;
1390;SDS011;690;51.454;7.194;2023-05-07T12:21:14;8.03;;;7.23;;
1390;SDS011;690;51.454;7.194;2023-05-07T12:23:42;8.10;;;7.23;;
1390;SDS011;690;51.454;7.194;2023-05-07T12:26:09;8.03;;;6.90;;
1390;SDS011;690;51.454;7.194;2023-05-07T12:28:36;6.93;;;6.33;;
1390;SDS011;690;51.454;7.194;2023-05-07T12:31:04;7.90;;;6.23;;
1390;SDS011;690;51.454;7.194;2023-05-07T12:33:32;8.17;;;7.37;;
1390;SDS011;690;51.454;7.194;2023-05-07T12:36:02;8.27;;;7.40;;
1390;SDS011;690;51.454;7.194;2023-05-07T12:38:35;7.57;;;6.77;;
1390;SDS011;690;51.454;7.194;2023-05-07T12:41:13;7.27;;;6.53;;
1390;SDS011;690;51.454;7.194;2023-05-07T12:43:43;6.63;;;5.70;;
1390;SDS011;690;51.454;7.194;2023-05-07T12:46:11;7.17;;;6.47;;
1390;SDS011;690;51.454;7.194;2023-05-07T12:48:48;7.93;;;6.37;;
1390;SDS011;690;51.454;7.194;2023-05-07T12:51:20;6.47;;;5.87;;
1390;SDS011;690;51.454;7.194;2023-05-07T12:53:50;5.67;;;5.07;;
1390;SDS011;690;51.454;7.194;2023-05-07T12:56:16;7.73;;;6.03;;
1390;SDS011;690;51.454;7.194;2023-05-07T12:58:50;7.83;;;6.87;;
1390;SDS011;690;51.454;7.194;2023-05-07T13:01:17;7.83;;;7.03;;
1390;SDS011;690;51.454;7.194;2023-05-07T13:03:47;7.87;;;6.23;;
1390;SDS011;690;51.454;7.194;2023-05-07T13:06:23;7.33;;;6.67;;
1390;SDS011;690;51.454;7.194;2023-05-07T13:08:55;5.60;;;5.10;;
1390;SDS011;690;51.454;7.194;2023-05-07T13:11:24;6.20;;;5.17;;
1390;SDS011;690;51.454;7.194;2023-05-07T13:13:52;5.43;;;4.80;;
1390;SDS011;690;51.454;7.194;2023-05-07T13:16:29;5.73;;;5.13;;
1390;SDS011;690;51.454;7.194;2023-05-07T13:19:00;5.30;;;4.80;;
1390;SDS011;690;51.454;7.194;2023-05-07T13:27:57;6.20;;;5.57;;
1390;SDS011;690;51.454;7.194;2023-05-07T13:30:24;6.40;;;5.80;;
1390;SDS011;690;51.454;7.194;2023-05-07T13:32:51;6.70;;;5.53;;
1390;SDS011;690;51.454;7.194;2023-05-07T13:35:18;8.57;;;7.23;;
1390;SDS011;690;51.454;7.194;2023-05-07T13:37:45;7.67;;;6.90;;
1390;SDS011;690;51.454;7.194;2023-05-07T13:40:13;8.10;;;7.30;;
1390;SDS011;690;51.454;7.194;2023-05-07T13:42:40;9.83;;;7.20;;
1390;SDS011;690;51.454;7.194;2023-05-07T13:45:09;7.07;;;6.37;;
1390;SDS011;690;51.454;7.194;2023-05-07T13:47:46;8.27;;;7.57;;
1390;SDS011;690;51.454;7.194;2023-05-07T13:50:14;7.87;;;7.07;;
1390;SDS011;690;51.454;7.194;2023-05-07T13:52:42;6.67;;;6.07;;
1390;SDS011;690;51.454;7.194;2023-05-07T13:55:12;8.90;;;5.87;;
1390;SDS011;690;51.454;7.194;2023-05-07T13:57:41;6.07;;;5.57;;
1390;SDS011;690;51.454;7.194;2023-05-07T14:00:11;7.87;;;7.07;;
1390;SDS011;690;51.454;7.194;2023-05-07T14:02:38;10.57;;;6.37;;
1390;SDS011;690;51.454;7.194;2023-05-07T14:05:05;6.87;;;6.27;;
1390;SDS011;690;51.454;7.194;2023-05-07T14:07:34;7.73;;;6.93;;
1390;SDS011;690;51.454;7.194;2023-05-07T14:10:00;8.00;;;7.30;;
1390;SDS011;690;51.454;7.194;2023-05-07T14:12:27;10.60;;;9.50;;
1390;SDS011;690;51.454;7.194;2023-05-07T14:14:54;12.27;;;9.30;;
1390;SDS011;690;51.454;7.194;2023-05-07T14:17:22;9.50;;;8.27;;
1390;SDS011;690;51.454;7.194;2023-05-07T14:19:51;7.50;;;6.80;;
1390;SDS011;690;51.454;7.194;2023-05-07T14:22:19;8.87;;;7.97;;
1390;SDS011;690;51.454;7.194;2023-05-07T14:24:51;11.07;;;8.63;;
1390;SDS011;690;51.454;7.194;2023-05-07T14:27:17;10.10;;;9.10;;
1390;SDS011;690;51.454;7.194;2023-05-07T14:29:50;8.80;;;7.83;;
1390;SDS011;690;51.454;7.194;2023-05-07T14:32:17;9.07;;;8.23;;
1390;SDS011;690;51.454;7.194;2023-05-07T14:34:46;9.73;;;8.80;;
1390;SDS011;690;51.454;7.194;2023-05-07T14:37:13;9.27;;;8.37;;
1390;SDS011;690;51.454;7.194;2023-05-07T14:39:40;11.13;;;9.97;;
1390;SDS011;690;51.454;7.194;2023-05-07T14:42:07;11.00;;;10.00;;
1390;SDS011;690;51.454;7.194;2023-05-07T14:44:34;10.07;;;9.07;;
1390;SDS011;690;51.454;7.194;2023-05-07T14:47:01;11.07;;;9.50;;
1390;SDS011;690;51.454;7.194;2023-05-07T14:49:28;10.43;;;9.43;;
1390;SDS011;690;51.454;7.194;2023-05-07T14:51:58;10.73;;;9.63;;
1390;SDS011;690;51.454;7.194;2023-05-07T14:54:25;10.50;;;9.50;;
1390;SDS011;690;51.454;7.194;2023-05-07T14:56:52;13.10;;;11.77;;
1390;SDS011;690;51.454;7.194;2023-05-07T14:59:19;12.17;;;10.97;;
1390;SDS011;690;51.454;7.194;2023-05-07T15:01:47;10.40;;;9.40;;
1390;SDS011;690;51.454;7.194;2023-05-07T15:04:14;10.47;;;9.47;;
1390;SDS011;690;51.454;7.194;2023-05-07T15:06:41;10.60;;;8.77;;
1390;SDS011;690;51.454;7.194;2023-05-07T15:09:10;9.13;;;8.23;;
1390;SDS011;690;51.454;7.194;2023-05-07T15:11:36;8.47;;;7.67;;
1390;SDS011;690;51.454;7.194;2023-05-07T15:14:03;7.73;;;7.03;;
1390;SDS011;690;51.454;7.194;2023-05-07T15:16:30;7.50;;;6.80;;
1390;SDS011;690;51.454;7.194;2023-05-07T15:18:57;8.00;;;7.20;;
1390;SDS011;690;51.454;7.194;2023-05-07T15:21:24;8.87;;;8.10;;
1390;SDS011;690;51.454;7.194;2023-05-07T15:23:51;8.17;;;7.30;;
1390;SDS011;690;51.454;7.194;2023-05-07T15:26:20;9.50;;;8.00;;
1390;SDS011;690;51.454;7.194;2023-05-07T15:28:47;7.73;;;6.80;;
1390;SDS011;690;51.454;7.194;2023-05-07T15:31:14;8.20;;;7.40;;
1390;SDS011;690;51.454;7.194;2023-05-07T15:33:41;8.20;;;7.50;;
1390;SDS011;690;51.454;7.194;2023-05-07T15:36:09;7.77;;;6.97;;
1390;SDS011;690;51.454;7.194;2023-05-07T15:38:36;10.37;;;9.30;;